createdAt,value
2023-04-23T00:01:33.025Z,97216.10
2023-04-23T00:04:06.978Z,97215.13
2023-04-23T00:06:40.251Z,97211.75
2023-04-23T00:09:16.885Z,97212.95
2023-04-23T00:11:51.485Z,97212.59
2023-04-23T00:14:25.455Z,97214.77
2023-04-23T00:16:57.393Z,97216.14
2023-04-23T00:19:29.737Z,97213.64
2023-04-23T00:22:07.237Z,97210.32
2023-04-23T00:24:40.030Z,97213.38
2023-04-23T00:27:13.096Z,97211.86
2023-04-23T00:29:46.931Z,97207.55
2023-04-23T00:32:19.585Z,97210.04
2023-04-23T00:34:52.138Z,97207.15
2023-04-23T00:37:26.742Z,97208.23
2023-04-23T00:39:59.228Z,97207.08
2023-04-23T00:42:32.295Z,97210.30
2023-04-23T00:45:06.521Z,97205.26
2023-04-23T00:47:39.251Z,97203.23
2023-04-23T00:50:13.570Z,97204.30
2023-04-23T00:52:46.328Z,97200.73
2023-04-23T00:55:21.592Z,97205.10
2023-04-23T00:57:54.657Z,97203.66
2023-04-23T01:00:27.503Z,97205.31
2023-04-23T01:03:02.428Z,97203.58
2023-04-23T01:05:35.329Z,97203.42
2023-04-23T01:08:08.400Z,97204.67
2023-04-23T01:10:41.531Z,97205.21
2023-04-23T01:13:16.024Z,97210.05
2023-04-23T01:15:49.355Z,97209.19
2023-04-23T01:18:25.112Z,97209.77
2023-04-23T01:20:58.276Z,97210.15
2023-04-23T01:23:31.728Z,97209.16
2023-04-23T01:26:04.455Z,97205.92
2023-04-23T01:28:37.613Z,97204.42
2023-04-23T01:31:11.134Z,97201.39
2023-04-23T01:33:48.694Z,97199.08
2023-04-23T01:36:21.509Z,97202.23
2023-04-23T01:38:56.284Z,97201.20
2023-04-23T01:41:28.751Z,97200.45
2023-04-23T01:44:02.277Z,97201.15
2023-04-23T01:46:37.139Z,97201.48
2023-04-23T01:49:10.087Z,97198.11
2023-04-23T01:51:43.946Z,97193.91
2023-04-23T01:54:16.635Z,97197.04
2023-04-23T01:56:49.189Z,97193.02
2023-04-23T01:59:24.306Z,97195.25
2023-04-23T02:01:57.054Z,97192.87
2023-04-23T02:04:30.107Z,97191.92
2023-04-23T02:07:03.290Z,97197.27
2023-04-23T02:09:36.054Z,97194.11
2023-04-23T02:12:09.134Z,97193.14
2023-04-23T02:14:42.186Z,97191.88
2023-04-23T02:17:15.948Z,97188.59
2023-04-23T02:19:49.027Z,97185.52
2023-04-23T02:22:22.732Z,97185.96
2023-04-23T02:24:56.332Z,97186.66
2023-04-23T02:27:27.213Z,97183.05
2023-04-23T02:30:00.452Z,97186.09
2023-04-23T02:32:33.597Z,97186.90
2023-04-23T02:35:07.741Z,97186.04
2023-04-23T02:37:40.799Z,97187.30
2023-04-23T02:40:14.712Z,97187.70
2023-04-23T02:42:47.282Z,97185.67
2023-04-23T02:45:20.383Z,97192.50
2023-04-23T02:47:56.305Z,97194.94
2023-04-23T02:50:29.157Z,97196.33
2023-04-23T02:53:02.181Z,97197.02
2023-04-23T02:55:35.108Z,97204.11
2023-04-23T02:58:07.869Z,97200.66
2023-04-23T03:00:41.510Z,97201.58
2023-04-23T03:03:14.823Z,97201.11
2023-04-23T03:05:47.800Z,97201.20
2023-04-23T03:08:20.268Z,97200.40
2023-04-23T03:10:55.554Z,97196.26
2023-04-23T03:13:28.530Z,97190.27
2023-04-23T03:16:01.273Z,97189.02
2023-04-23T03:18:33.934Z,97186.86
2023-04-23T03:21:08.512Z,97188.77
2023-04-23T03:23:41.483Z,97192.57
2023-04-23T03:26:14.376Z,97193.73
2023-04-23T03:28:47.577Z,97193.16
2023-04-23T03:31:20.392Z,97191.02
2023-04-23T03:33:53.582Z,97188.84
2023-04-23T03:36:30.552Z,97190.38
2023-04-23T03:39:03.632Z,97187.64
2023-04-23T03:41:46.777Z,97188.84
2023-04-23T03:44:20.241Z,97189.40
2023-04-23T03:46:53.992Z,97189.35
2023-04-23T03:49:25.168Z,97192.24
2023-04-23T03:51:58.106Z,97186.27
2023-04-23T03:54:30.909Z,97190.79
2023-04-23T03:57:19.101Z,97191.48
2023-04-23T04:00:21.350Z,97191.27
2023-04-23T04:02:54.112Z,97190.50
2023-04-23T04:05:29.875Z,97189.36
2023-04-23T04:08:05.107Z,97191.68
2023-04-23T04:10:37.661Z,97190.09
2023-04-23T04:13:10.211Z,97186.89
2023-04-23T04:15:43.842Z,97188.40
2023-04-23T04:18:14.622Z,97188.58
2023-04-23T04:20:47.371Z,97186.14
2023-04-23T04:23:20.052Z,97188.92
2023-04-23T04:25:56.903Z,97186.90
2023-04-23T04:28:29.753Z,97192.24
2023-04-23T04:31:03.439Z,97191.92
2023-04-23T04:33:36.735Z,97191.02
2023-04-23T04:36:10.440Z,97198.16
2023-04-23T04:38:44.248Z,97193.83
2023-04-23T04:41:15.016Z,97197.02
2023-04-23T04:43:48.693Z,97200.09
2023-04-23T04:46:20.524Z,97201.66
2023-04-23T04:48:53.215Z,97201.05
2023-04-23T04:51:25.878Z,97206.20
2023-04-23T04:53:58.963Z,97207.97
2023-04-23T04:56:31.728Z,97201.08
2023-04-23T04:59:06.039Z,97201.41
2023-04-23T05:01:38.756Z,97199.66
2023-04-23T05:04:11.600Z,97208.80
2023-04-23T05:06:44.847Z,97202.02
2023-04-23T05:09:18.798Z,97206.61
2023-04-23T05:11:52.028Z,97201.86
2023-04-23T05:14:26.526Z,97198.77
2023-04-23T05:16:59.887Z,97191.79
2023-04-23T05:19:34.009Z,97195.19
2023-04-23T05:22:06.568Z,97198.02
2023-04-23T05:24:40.094Z,97194.67
2023-04-23T05:27:13.139Z,97194.00
2023-04-23T05:29:46.018Z,97189.16
2023-04-23T05:32:18.602Z,97191.63
2023-04-23T05:34:51.649Z,97195.88
2023-04-23T05:37:25.015Z,97197.99
2023-04-23T05:39:58.531Z,97202.34
2023-04-23T05:42:32.689Z,97201.80
2023-04-23T05:45:08.066Z,97196.66
2023-04-23T05:47:41.631Z,97196.84
2023-04-23T05:50:15.166Z,97195.38
2023-04-23T05:52:47.499Z,97192.89
2023-04-23T05:55:21.316Z,97191.60
2023-04-23T05:57:53.949Z,97193.23
2023-04-23T06:00:27.706Z,97197.62
2023-04-23T06:03:00.614Z,97198.45
2023-04-23T06:05:33.634Z,97197.54
2023-04-23T06:08:06.267Z,97200.05
2023-04-23T06:10:40.686Z,97202.08
2023-04-23T06:13:15.614Z,97201.60
2023-04-23T06:15:50.307Z,97204.48
2023-04-23T06:18:22.819Z,97205.69
2023-04-23T06:20:57.586Z,97202.39
2023-04-23T06:23:30.345Z,97200.89
2023-04-23T06:26:04.796Z,97200.17
2023-04-23T06:28:37.508Z,97203.34
2023-04-23T06:31:40.123Z,97203.80
2023-04-23T06:34:12.764Z,97203.06
2023-04-23T06:36:45.654Z,97202.70
2023-04-23T06:39:18.131Z,97203.36
2023-04-23T06:41:51.368Z,97201.01
2023-04-23T06:44:30.668Z,97200.95
2023-04-23T06:47:03.702Z,97199.85
2023-04-23T06:49:36.211Z,97200.06
2023-04-23T06:52:09.286Z,97197.62
2023-04-23T06:54:42.226Z,97203.93
2023-04-23T06:57:15.348Z,97199.35
2023-04-23T06:59:48.188Z,97199.92
2023-04-23T07:02:22.123Z,97195.66
2023-04-23T07:04:55.462Z,97201.06
2023-04-23T07:07:28.227Z,97195.97
2023-04-23T07:10:00.970Z,97197.58
2023-04-23T07:12:33.748Z,97196.79
2023-04-23T07:15:07.567Z,97197.13
2023-04-23T07:17:40.188Z,97192.30
2023-04-23T07:20:13.571Z,97188.27
2023-04-23T07:22:48.191Z,97190.64
2023-04-23T07:25:22.109Z,97191.30
2023-04-23T07:27:56.069Z,97186.95
2023-04-23T07:30:30.094Z,97189.13
2023-04-23T07:33:03.081Z,97183.48
2023-04-23T07:35:35.536Z,97187.18
2023-04-23T07:38:08.269Z,97185.02
2023-04-23T07:40:41.735Z,97186.15
2023-04-23T07:43:15.273Z,97191.23
2023-04-23T07:45:45.848Z,97189.22
2023-04-23T07:48:19.156Z,97186.44
2023-04-23T07:50:49.676Z,97182.88
2023-04-23T07:53:24.117Z,97180.97
2023-04-23T07:55:57.072Z,97183.02
2023-04-23T07:58:29.923Z,97184.64
2023-04-23T08:01:03.488Z,97184.92
2023-04-23T08:03:36.506Z,97181.23
2023-04-23T08:06:11.601Z,97179.80
2023-04-23T08:08:44.551Z,97180.66
2023-04-23T08:11:17.162Z,97182.77
2023-04-23T08:13:51.647Z,97179.24
2023-04-23T08:16:24.312Z,97179.50
2023-04-23T08:19:05.636Z,97177.30
2023-04-23T08:21:40.525Z,97174.43
2023-04-23T08:24:11.910Z,97171.96
2023-04-23T08:26:47.044Z,97173.39
2023-04-23T08:29:20.334Z,97167.64
2023-04-23T08:31:52.803Z,97164.92
2023-04-23T08:34:26.065Z,97165.67
2023-04-23T08:37:27.284Z,97167.34
2023-04-23T08:40:05.564Z,97164.20
2023-04-23T08:42:44.389Z,97167.16
2023-04-23T08:45:17.574Z,97159.38
2023-04-23T08:47:48.294Z,97162.31
2023-04-23T08:50:21.981Z,97158.96
2023-04-23T08:52:58.085Z,97156.80
2023-04-23T08:55:31.845Z,97155.75
2023-04-23T08:58:07.689Z,97154.01
2023-04-23T09:00:40.938Z,97151.95
2023-04-23T09:03:15.205Z,97149.11
2023-04-23T09:05:48.492Z,97144.34
2023-04-23T09:08:19.362Z,97138.36
2023-04-23T09:10:53.548Z,97138.13
2023-04-23T09:13:26.332Z,97136.68
2023-04-23T09:15:59.589Z,97134.16
2023-04-23T09:18:32.064Z,97132.77
2023-04-23T09:21:05.602Z,97131.02
2023-04-23T09:23:41.700Z,97131.30
2023-04-23T09:26:24.034Z,97129.94
2023-04-23T09:28:56.594Z,97126.72
2023-04-23T09:31:29.793Z,97121.52
2023-04-23T09:34:03.223Z,97119.46
2023-04-23T09:36:37.425Z,97118.96
2023-04-23T09:39:20.048Z,97115.25
2023-04-23T09:41:55.338Z,97114.59
2023-04-23T09:44:35.740Z,97117.48
2023-04-23T09:47:16.160Z,97107.54
2023-04-23T09:49:52.513Z,97104.92
2023-04-23T09:52:25.654Z,97106.21
2023-04-23T09:55:00.585Z,97107.86
2023-04-23T09:57:33.931Z,97103.74
2023-04-23T10:00:19.474Z,97098.00
2023-04-23T10:02:54.303Z,97095.06
2023-04-23T10:05:36.895Z,97090.30
2023-04-23T10:08:18.559Z,97087.33
2023-04-23T10:11:05.966Z,97086.17
2023-04-23T10:13:43.425Z,97084.92
2023-04-23T10:16:23.049Z,97090.09
2023-04-23T10:19:01.873Z,97081.38
2023-04-23T10:21:50.142Z,97075.60
2023-04-23T10:24:28.936Z,97077.55
2023-04-23T10:27:04.605Z,97079.78
2023-04-23T10:29:38.119Z,97074.61
2023-04-23T10:32:14.638Z,97073.75
2023-04-23T10:34:48.389Z,97075.98
2023-04-23T10:37:21.769Z,97071.27
2023-04-23T10:39:58.364Z,97063.13
2023-04-23T10:42:31.738Z,97062.52
2023-04-23T10:45:22.565Z,97064.73
2023-04-23T10:47:57.875Z,97060.11
2023-04-23T10:50:32.964Z,97057.35
2023-04-23T10:53:19.739Z,97055.80
2023-04-23T10:55:52.473Z,97057.52
2023-04-23T10:58:25.879Z,97051.45
2023-04-23T11:00:59.021Z,97051.81
2023-04-23T11:03:44.424Z,97049.78
2023-04-23T11:06:22.680Z,97052.64
2023-04-23T11:08:59.760Z,97053.80
2023-04-23T11:11:45.450Z,97050.51
2023-04-23T11:14:18.003Z,97050.44
2023-04-23T11:16:52.171Z,97050.94
2023-04-23T11:19:26.383Z,97050.42
2023-04-23T11:22:06.562Z,97045.34
2023-04-23T11:24:42.753Z,97041.38
2023-04-23T11:27:17.863Z,97041.96
2023-04-23T11:29:50.663Z,97038.95
2023-04-23T11:32:25.865Z,97035.95
2023-04-23T11:35:04.010Z,97033.98
2023-04-23T11:37:43.169Z,97026.14
2023-04-23T11:40:21.910Z,97020.39
2023-04-23T11:42:59.427Z,97021.30
2023-04-23T11:45:32.622Z,97018.95
2023-04-23T11:48:06.260Z,97025.95
2023-04-23T11:50:39.833Z,97023.48
2023-04-23T11:53:15.271Z,97015.39
2023-04-23T11:55:51.036Z,97016.98
2023-04-23T11:58:23.851Z,97013.80
2023-04-23T12:01:02.989Z,97013.48
2023-04-23T12:03:35.839Z,97012.73
2023-04-23T12:06:10.828Z,97008.81
2023-04-23T12:08:44.357Z,97010.47
2023-04-23T12:11:17.833Z,97009.72
2023-04-23T12:13:51.104Z,97010.73
2023-04-23T12:16:37.781Z,97004.32
2023-04-23T12:19:11.978Z,97006.86
2023-04-23T12:21:56.765Z,97004.73
2023-04-23T12:24:31.402Z,97009.66
2023-04-23T12:27:06.093Z,96998.83
2023-04-23T12:29:39.058Z,97002.00
2023-04-23T12:32:14.369Z,96998.69
2023-04-23T12:34:57.116Z,96995.80
2023-04-23T12:37:31.571Z,96995.17
2023-04-23T12:40:07.469Z,96986.29
2023-04-23T12:42:40.534Z,96981.52
2023-04-23T12:45:14.473Z,96982.94
2023-04-23T12:47:47.795Z,96981.48
2023-04-23T12:50:23.366Z,96976.20
2023-04-23T12:52:56.578Z,96972.09
2023-04-23T12:55:31.488Z,96965.59
2023-04-23T12:58:09.504Z,96967.13
2023-04-23T13:00:42.548Z,96961.06
2023-04-23T13:03:15.940Z,96956.78
2023-04-23T13:05:49.439Z,96959.19
2023-04-23T13:08:22.181Z,96957.13
2023-04-23T13:10:55.341Z,96958.26
2023-04-23T13:13:27.947Z,96951.17
2023-04-23T13:16:01.056Z,96948.75
2023-04-23T13:18:35.437Z,96942.27
2023-04-23T13:21:08.731Z,96944.41
2023-04-23T13:23:42.762Z,96938.73
2023-04-23T13:26:15.841Z,96935.33
2023-04-23T13:28:50.117Z,96934.43
2023-04-23T13:31:23.235Z,96929.71
2023-04-23T13:33:53.891Z,96926.98
2023-04-23T13:36:26.870Z,96925.23
2023-04-23T13:38:57.611Z,96928.27
2023-04-23T13:41:31.383Z,96924.65
2023-04-23T13:44:03.998Z,96927.11
2023-04-23T13:46:38.251Z,96925.65
2023-04-23T13:49:11.323Z,96922.72
2023-04-23T13:51:43.952Z,96920.89
2023-04-23T13:54:16.765Z,96912.48
2023-04-23T13:56:50.802Z,96909.19
2023-04-23T13:59:24.118Z,96912.19
2023-04-23T14:01:59.122Z,96909.60
2023-04-23T14:04:33.632Z,96902.98
2023-04-23T14:07:06.600Z,96897.39
2023-04-23T14:09:39.143Z,96896.23
2023-04-23T14:12:12.635Z,96892.75
2023-04-23T14:14:45.424Z,96897.20
2023-04-23T14:17:16.904Z,96889.65
2023-04-23T14:19:49.767Z,96888.80
2023-04-23T14:22:21.059Z,96888.48
2023-04-23T14:24:59.073Z,96889.75
2023-04-23T14:27:34.150Z,96889.05
2023-04-23T14:30:15.515Z,96884.97
2023-04-23T14:32:50.569Z,96891.21
2023-04-23T14:35:32.489Z,96885.48
2023-04-23T14:38:14.936Z,96876.16
2023-04-23T14:40:47.721Z,96875.75
2023-04-23T14:43:20.581Z,96879.61
2023-04-23T14:45:54.221Z,96879.40
2023-04-23T14:48:27.946Z,96879.16
2023-04-23T14:51:00.856Z,96878.08
2023-04-23T14:53:31.999Z,96874.69
2023-04-23T14:56:04.368Z,96867.03
2023-04-23T14:58:37.469Z,96867.16
2023-04-23T15:01:10.366Z,96873.34
2023-04-23T15:03:42.204Z,96873.60
2023-04-23T15:06:16.626Z,96877.17
2023-04-23T15:08:49.429Z,96877.41
2023-04-23T15:11:22.077Z,96875.05
2023-04-23T15:14:04.556Z,96870.80
2023-04-23T15:19:20.468Z,96866.86
2023-04-23T15:21:53.410Z,96862.45
2023-04-23T15:24:25.521Z,96860.06
2023-04-23T15:26:59.691Z,96862.61
2023-04-23T15:29:32.723Z,96856.33
2023-04-23T15:32:05.470Z,96856.31
2023-04-23T15:34:38.634Z,96854.14
2023-04-23T15:37:09.313Z,96847.52
2023-04-23T15:39:42.673Z,96845.08
2023-04-23T15:42:18.670Z,96841.88
2023-04-23T15:44:55.064Z,96842.11
2023-04-23T15:47:27.937Z,96838.63
2023-04-23T15:49:59.308Z,96840.69
2023-04-23T15:52:32.753Z,96836.49
2023-04-23T15:55:06.567Z,96835.44
2023-04-23T15:57:39.084Z,96835.95
2023-04-23T16:00:13.836Z,96832.25
2023-04-23T16:02:46.654Z,96833.73
2023-04-23T16:05:20.236Z,96837.77
2023-04-23T16:07:53.230Z,96832.31
2023-04-23T16:10:24.094Z,96832.66
2023-04-23T16:12:58.764Z,96831.54
2023-04-23T16:15:32.593Z,96830.12
2023-04-23T16:18:06.543Z,96829.73
2023-04-23T16:20:39.572Z,96833.10
2023-04-23T16:23:13.614Z,96830.50
2023-04-23T16:25:46.748Z,96826.58
2023-04-23T16:28:17.578Z,96829.04
2023-04-23T16:30:50.517Z,96830.90
2023-04-23T16:33:24.251Z,96825.02
2023-04-23T16:35:57.571Z,96824.64
2023-04-23T16:38:30.272Z,96823.48
2023-04-23T16:41:05.050Z,96824.79
2023-04-23T16:43:37.870Z,96822.86
2023-04-23T16:46:11.203Z,96819.23
2023-04-23T16:48:45.642Z,96817.68
2023-04-23T16:51:18.274Z,96810.81
2023-04-23T16:53:51.328Z,96807.77
2023-04-23T16:56:25.288Z,96809.59
2023-04-23T16:58:58.642Z,96811.23
2023-04-23T17:01:32.856Z,96809.86
2023-04-23T17:04:06.313Z,96806.02
2023-04-23T17:06:40.597Z,96805.93
2023-04-23T17:09:13.378Z,96806.11
2023-04-23T17:11:45.954Z,96801.98
2023-04-23T17:14:18.689Z,96800.64
2023-04-23T17:16:51.391Z,96798.91
2023-04-23T17:19:24.254Z,96802.38
2023-04-23T17:21:57.175Z,96803.86
2023-04-23T17:24:30.465Z,96803.64
2023-04-23T17:27:04.733Z,96804.05
2023-04-23T17:29:38.180Z,96799.40
2023-04-23T17:32:11.865Z,96800.86
2023-04-23T17:34:51.536Z,96800.27
2023-04-23T17:37:29.856Z,96797.40
2023-04-23T17:40:03.057Z,96803.23
2023-04-23T17:42:36.939Z,96802.66
2023-04-23T17:45:11.787Z,96804.55
2023-04-23T17:47:44.877Z,96804.52
2023-04-23T17:50:17.631Z,96804.76
2023-04-23T17:52:50.348Z,96804.17
2023-04-23T17:55:23.549Z,96804.25
2023-04-23T17:57:54.379Z,96806.13
2023-04-23T18:00:28.912Z,96807.16
2023-04-23T18:03:04.010Z,96804.92
2023-04-23T18:05:38.638Z,96809.05
2023-04-23T18:08:12.288Z,96807.41
2023-04-23T18:10:45.944Z,96809.59
2023-04-23T18:13:19.391Z,96810.89
2023-04-23T18:15:55.895Z,96810.13
2023-04-23T18:18:29.956Z,96814.64
2023-04-23T18:21:04.007Z,96816.88
2023-04-23T18:23:38.187Z,96815.93
2023-04-23T18:26:15.578Z,96819.48
2023-04-23T18:28:52.244Z,96816.69
2023-04-23T18:31:29.190Z,96818.55
2023-04-23T18:34:14.014Z,96818.14
2023-04-23T18:36:52.303Z,96819.34
2023-04-23T18:39:26.099Z,96819.20
2023-04-23T18:42:01.681Z,96819.11
2023-04-23T18:44:35.694Z,96816.15
2023-04-23T18:47:13.612Z,96814.89
2023-04-23T18:49:55.169Z,96815.02
2023-04-23T18:52:31.071Z,96813.30
2023-04-23T18:55:07.439Z,96816.98
2023-04-23T18:57:42.543Z,96815.27
2023-04-23T19:00:19.712Z,96812.85
2023-04-23T19:02:53.646Z,96813.98
2023-04-23T19:05:24.464Z,96816.70
2023-04-23T19:07:57.480Z,96812.35
2023-04-23T19:10:30.975Z,96810.59
2023-04-23T19:13:03.919Z,96811.73
2023-04-23T19:15:37.290Z,96808.16
2023-04-23T19:18:08.478Z,96807.11
2023-04-23T19:20:41.226Z,96815.20
2023-04-23T19:23:14.116Z,96810.73
2023-04-23T19:25:49.154Z,96812.70
2023-04-23T19:28:22.639Z,96808.15
2023-04-23T19:30:55.975Z,96802.24
2023-04-23T19:33:29.995Z,96803.59
2023-04-23T19:36:02.916Z,96800.17
2023-04-23T19:38:35.747Z,96799.33
2023-04-23T19:41:10.125Z,96799.47
2023-04-23T19:43:43.160Z,96797.29
2023-04-23T19:46:16.161Z,96791.23
2023-04-23T19:48:49.110Z,96791.36
2023-04-23T19:51:25.496Z,96785.83
2023-04-23T19:53:58.758Z,96784.39
2023-04-23T19:56:31.520Z,96783.45
2023-04-23T19:59:04.489Z,96783.86
2023-04-23T20:01:37.757Z,96781.69
2023-04-23T20:04:10.961Z,96781.73
2023-04-23T20:06:42.337Z,96784.45
2023-04-23T20:09:20.927Z,96779.84
2023-04-23T20:11:53.617Z,96781.61
2023-04-23T20:14:27.157Z,96779.67
2023-04-23T20:16:59.923Z,96777.84
2023-04-23T20:19:33.919Z,96780.75
2023-04-23T20:22:07.198Z,96779.88
2023-04-23T20:24:47.213Z,96778.77
2023-04-23T20:27:19.814Z,96777.39
2023-04-23T20:29:53.027Z,96775.39
2023-04-23T20:32:25.514Z,96774.96
2023-04-23T20:34:59.429Z,96774.49
2023-04-23T20:37:32.201Z,96772.02
2023-04-23T20:40:08.925Z,96766.19
2023-04-23T20:42:42.659Z,96763.42
2023-04-23T20:45:16.332Z,96759.61
2023-04-23T20:47:48.978Z,96759.52
2023-04-23T20:50:22.321Z,96763.70
2023-04-23T20:52:56.071Z,96762.35
2023-04-23T20:55:29.410Z,96762.83
2023-04-23T20:57:59.977Z,96763.60
2023-04-23T21:00:35.482Z,96767.27
2023-04-23T21:03:08.210Z,96768.73
2023-04-23T21:05:44.642Z,96767.69
2023-04-23T21:08:17.519Z,96768.45
2023-04-23T21:10:50.385Z,96767.96
2023-04-23T21:13:23.004Z,96767.09
2023-04-23T21:15:56.399Z,96765.65
2023-04-23T21:18:27.185Z,96767.80
2023-04-23T21:21:00.032Z,96766.70
2023-04-23T21:23:34.301Z,96764.67
2023-04-23T21:26:08.177Z,96763.67
2023-04-23T21:28:41.370Z,96766.81
2023-04-23T21:31:19.411Z,96764.16
2023-04-23T21:33:51.932Z,96763.34
2023-04-23T21:36:26.048Z,96759.63
2023-04-23T21:39:00.270Z,96761.63
2023-04-23T21:41:33.875Z,96762.91
2023-04-23T21:44:06.137Z,96761.48
2023-04-23T21:46:38.844Z,96760.15
2023-04-23T21:49:11.668Z,96763.27
2023-04-23T21:51:45.027Z,96758.36
2023-04-23T21:54:17.590Z,96763.42
2023-04-23T21:56:50.128Z,96763.08
2023-04-23T21:59:23.956Z,96765.52
2023-04-23T22:01:59.178Z,96768.78
2023-04-23T22:04:32.386Z,96762.93
2023-04-23T22:07:07.650Z,96758.25
2023-04-23T22:09:40.750Z,96763.55
2023-04-23T22:12:14.132Z,96762.17
2023-04-23T22:14:47.073Z,96762.06
2023-04-23T22:17:20.741Z,96760.80
2023-04-23T22:19:53.596Z,96764.00
2023-04-23T22:22:26.598Z,96762.55
2023-04-23T22:24:59.157Z,96762.29
2023-04-23T22:27:34.189Z,96759.21
2023-04-23T22:30:09.603Z,96760.02
2023-04-23T22:32:42.581Z,96756.48
2023-04-23T22:35:15.512Z,96756.15
2023-04-23T22:37:48.768Z,96754.48
2023-04-23T22:40:21.951Z,96756.03
2023-04-23T22:42:54.981Z,96752.08
2023-04-23T22:45:27.638Z,96754.82
2023-04-23T22:48:00.660Z,96753.80
2023-04-23T22:50:33.262Z,96749.00
2023-04-23T22:53:05.959Z,96749.36
2023-04-23T22:55:38.685Z,96751.70
2023-04-23T22:58:11.468Z,96748.54
2023-04-23T23:00:45.565Z,96751.95
2023-04-23T23:03:18.421Z,96756.90
2023-04-23T23:05:51.325Z,96754.31
2023-04-23T23:08:23.977Z,96754.09
2023-04-23T23:10:57.098Z,96752.57
2023-04-23T23:13:30.187Z,96747.02
2023-04-23T23:16:04.947Z,96745.84
2023-04-23T23:18:37.673Z,96742.40
2023-04-23T23:21:10.390Z,96740.01
2023-04-23T23:23:43.246Z,96737.67
2023-04-23T23:26:16.408Z,96738.67
2023-04-23T23:28:49.508Z,96739.86
2023-04-23T23:31:22.236Z,96738.60
2023-04-23T23:33:55.360Z,96738.51
2023-04-23T23:36:28.176Z,96734.40
2023-04-23T23:39:02.052Z,96733.14
2023-04-23T23:41:32.997Z,96731.61
2023-04-23T23:44:06.256Z,96732.07
2023-04-23T23:46:39.607Z,96731.70
2023-04-23T23:49:14.860Z,96733.41
2023-04-23T23:51:47.511Z,96731.09
2023-04-23T23:54:20.249Z,96738.98
2023-04-23T23:56:53.009Z,96738.11
2023-04-23T23:59:25.928Z,96735.80
